createdAt,value
2023-03-12T00:06:34.245Z,4.29
2023-03-12T00:16:34.265Z,3.96
2023-03-12T00:26:34.277Z,3.6
2023-03-12T00:36:34.257Z,3.31
2023-03-12T00:46:34.352Z,3.33
2023-03-12T00:56:34.355Z,3.19
2023-03-12T01:06:34.250Z,3.25
2023-03-12T01:16:34.368Z,2.97
2023-03-12T01:26:34.276Z,2.94
2023-03-12T01:36:34.296Z,2.72
2023-03-12T01:46:34.301Z,2.29
2023-03-12T01:56:34.340Z,2.05
2023-03-12T02:06:34.259Z,1.7
2023-03-12T02:16:34.338Z,1.34
2023-03-12T02:26:34.302Z,1.13
2023-03-12T02:36:34.323Z,0.98
2023-03-12T02:46:34.317Z,0.72
2023-03-12T02:56:43.196Z,0.49
2023-03-12T03:06:34.274Z,0.34
2023-03-12T03:16:34.333Z,0.12
2023-03-12T03:26:34.373Z,-0.11
2023-03-12T03:36:34.328Z,-0.12
2023-03-12T03:46:34.469Z,-0.38
2023-03-12T03:56:34.391Z,-0.64
2023-03-12T04:06:34.324Z,-0.6
2023-03-12T04:16:34.400Z,-0.79
2023-03-12T04:26:34.329Z,-1.06
2023-03-12T04:36:34.384Z,-1.05
2023-03-12T04:46:34.408Z,-1.08
2023-03-12T04:56:34.370Z,-1.31
2023-03-12T05:06:34.369Z,-1.44
2023-03-12T05:16:34.535Z,-1.42
2023-03-12T05:26:34.384Z,-1.39
2023-03-12T05:36:34.426Z,-1.57
2023-03-12T05:46:34.383Z,-1.59
2023-03-12T05:56:34.394Z,-1.62
2023-03-12T06:06:34.383Z,-1.52
2023-03-12T06:16:34.445Z,-1.47
2023-03-12T06:26:34.407Z,-1
2023-03-12T06:36:34.456Z,-0.6
2023-03-12T06:46:34.483Z,-0.15
2023-03-12T06:56:34.444Z,0.8
2023-03-12T07:06:34.573Z,2.96
2023-03-12T07:16:34.574Z,4
2023-03-12T07:26:34.409Z,5.04
2023-03-12T07:36:34.646Z,5
2023-03-12T07:46:34.470Z,5.07
2023-03-12T07:56:35.796Z,5.7
2023-03-12T08:06:34.430Z,5.86
2023-03-12T08:16:34.528Z,6.51
2023-03-12T08:26:34.439Z,7.9
2023-03-12T08:36:34.428Z,7.52
2023-03-12T08:46:34.576Z,7.59
2023-03-12T08:56:34.432Z,7.91
2023-03-12T09:06:34.396Z,8
2023-03-12T09:16:34.479Z,8.52
2023-03-12T09:26:34.398Z,8.73
2023-03-12T09:36:34.396Z,9.36
2023-03-12T09:46:34.394Z,9.58
2023-03-12T09:56:34.393Z,9.36
2023-03-12T10:06:34.390Z,9.43
2023-03-12T10:16:34.371Z,10.37
2023-03-12T10:26:34.439Z,10.86
2023-03-12T10:36:34.356Z,10.93
2023-03-12T10:46:34.680Z,10.86
2023-03-12T10:56:34.365Z,10.77
2023-03-12T11:06:34.332Z,10.65
2023-03-12T11:16:34.404Z,10.59
2023-03-12T11:26:34.330Z,11.2
2023-03-12T11:36:34.326Z,11.08
2023-03-12T11:46:34.316Z,11.13
2023-03-12T12:06:34.324Z,10.86
2023-03-12T12:16:34.332Z,10.73
2023-03-12T12:26:34.396Z,10.76
2023-03-12T12:36:34.317Z,10.28
2023-03-12T12:46:34.296Z,10.92
2023-03-12T12:56:34.274Z,10.78
2023-03-12T13:06:34.294Z,10.51
2023-03-12T13:16:34.259Z,10.5
2023-03-12T13:26:34.370Z,10.55
2023-03-12T13:36:34.240Z,10.59
2023-03-12T13:46:34.347Z,10.59
2023-03-12T13:56:34.304Z,10.83
2023-03-12T14:06:34.292Z,10.64
2023-03-12T14:16:34.332Z,10.65
2023-03-12T14:26:34.259Z,10.91
2023-03-12T14:36:34.209Z,11.04
2023-03-12T14:46:34.395Z,11.25
2023-03-12T14:56:34.180Z,11.23
2023-03-12T15:06:34.281Z,11.18
2023-03-12T15:16:34.534Z,11.27
2023-03-12T15:26:34.206Z,11.11
2023-03-12T15:36:34.180Z,11.21
2023-03-12T15:46:34.356Z,11.21
2023-03-12T15:56:34.170Z,11.22
2023-03-12T16:06:34.177Z,11.17
2023-03-12T16:16:34.251Z,11.21
2023-03-12T16:26:34.227Z,10.85
2023-03-12T16:36:34.394Z,10.51
2023-03-12T16:46:34.249Z,9.96
2023-03-12T16:56:34.135Z,9.4
2023-03-12T17:06:34.176Z,9.03
2023-03-12T17:16:34.157Z,8.53
2023-03-12T17:26:34.193Z,7.74
2023-03-12T17:36:34.102Z,6.96
2023-03-12T17:46:34.235Z,6.6
2023-03-12T17:56:34.125Z,6.15
2023-03-12T18:06:34.125Z,5.42
2023-03-12T18:16:34.145Z,4.93
2023-03-12T18:26:34.176Z,4.28
2023-03-12T18:36:34.141Z,4.17
2023-03-12T18:46:34.243Z,3.97
2023-03-12T18:56:34.264Z,3.78
2023-03-12T19:06:48.047Z,3.34
2023-03-12T19:16:34.199Z,3.25
2023-03-12T19:26:34.160Z,3.04
2023-03-12T19:36:34.119Z,2.65
2023-03-12T19:46:34.150Z,2.32
2023-03-12T19:56:34.176Z,2.2
2023-03-12T20:06:34.200Z,2.01
2023-03-12T20:16:34.203Z,1.85
2023-03-12T20:26:34.157Z,1.53
2023-03-12T20:36:34.152Z,1.54
2023-03-12T20:46:34.168Z,1.62
2023-03-12T20:56:34.164Z,1.6
2023-03-12T21:06:34.250Z,1.5
2023-03-12T21:16:34.247Z,1.44
2023-03-12T21:26:34.217Z,1.27
2023-03-12T21:36:34.167Z,1.18
2023-03-12T21:46:34.254Z,0.98
2023-03-12T21:56:34.199Z,0.79
2023-03-12T22:06:34.238Z,0.76
2023-03-12T22:16:34.244Z,0.72
2023-03-12T22:26:34.257Z,0.55
2023-03-12T22:36:34.207Z,0.36
2023-03-12T22:46:34.339Z,0.48
2023-03-12T22:56:34.226Z,0.34
2023-03-12T23:06:34.220Z,0.19
2023-03-12T23:16:34.279Z,-0.02
2023-03-12T23:26:34.278Z,-0.04
2023-03-12T23:36:34.219Z,-0.19
2023-03-12T23:46:34.296Z,-0.25
2023-03-12T23:56:34.334Z,-0.3
